Time;durP1;ratioP1;P1;durP2;ratioP2;P2;SDS_P1;SDS_P2;PMS_P1;PMS_P2;Temp;Humidity;BMP_temperature;BMP_pressure;BME280_temperature;BME280_humidity;BME280_pressure;Samples;Min_cycle;Max_cycle;Signal;HPM_P1;HPM_P2
2023/12/04 00:00:48;;;;;;;62.00;26.40;;;;;;;-5.62;92.55;100970.98;107566;1281;24201;-81
2023/12/04 00:04:41;;;;;;;72.10;27.50;;;;;;;-5.64;92.73;100973.67;107598;1281;22614;-83
2023/12/04 00:07:52;;;;;;;72.40;28.30;;;;;;;-5.66;92.43;100969.73;107544;1281;22724;-81
2023/12/04 00:11:26;;;;;;;67.80;25.40;;;;;;;-5.73;91.85;100972.67;107769;1280;22645;-81
2023/12/04 00:14:37;;;;;;;73.30;27.20;;;;;;;-5.81;91.87;100977.78;107672;1280;22925;-81
2023/12/04 00:17:50;;;;;;;72.80;27.60;;;;;;;-5.88;91.89;100978.39;107651;1281;25011;-82
2023/12/04 00:21:42;;;;;;;70.60;27.70;;;;;;;-5.91;92.18;100975.21;107667;1281;25572;-82
2023/12/04 00:24:53;;;;;;;67.80;25.30;;;;;;;-5.94;92.10;100972.56;107590;1281;22640;-82
2023/12/04 00:28:46;;;;;;;63.80;27.10;;;;;;;-6.00;91.92;100973.91;107544;1281;22610;-81
2023/12/04 00:31:39;;;;;;;62.00;23.90;;;;;;;-6.04;91.93;100971.39;107532;1281;23310;-84
2023/12/04 00:35:32;;;;;;;59.60;24.90;;;;;;;-6.08;92.11;100970.35;107652;1281;22686;-82
2023/12/04 00:38:44;;;;;;;61.40;23.20;;;;;;;-6.13;91.73;100972.79;107522;1281;25498;-81
2023/12/04 00:41:56;;;;;;;60.00;24.30;;;;;;;-6.18;91.84;100979.42;107604;1281;22601;-81
2023/12/04 00:45:09;;;;;;;61.70;22.10;;;;;;;-6.22;91.90;100985.92;107515;1281;23413;-82
2023/12/04 00:49:01;;;;;;;57.70;22.40;;;;;;;-6.24;92.09;100990.61;107548;1281;22735;-82
2023/12/04 00:52:53;;;;;;;60.70;24.60;;;;;;;-6.24;91.99;100990.67;107592;1281;25768;-82
2023/12/04 00:56:07;;;;;;;58.50;23.70;;;;;;;-6.25;91.76;100991.35;107613;1270;22647;-82
2023/12/04 00:58:58;;;;;;;64.60;25.20;;;;;;;-6.28;91.52;100994.37;107491;1261;25617;-83
2023/12/04 01:02:17;;;;;;;62.70;24.40;;;;;;;-6.33;91.49;100996.48;107344;1281;26790;-82
2023/12/04 01:05:49;;;;;;;60.60;23.00;;;;;;;-6.36;91.65;100993.91;107311;1281;302073;-82
2023/12/04 01:08:41;;;;;;;59.90;22.40;;;;;;;-6.39;91.73;100996.25;107572;1281;23403;-82
2023/12/04 01:11:36;;;;;;;58.70;23.00;;;;;;;-6.42;91.52;100995.63;107578;1281;26376;-83
2023/12/04 01:14:28;;;;;;;66.20;24.90;;;;;;;-6.43;91.79;100994.11;107541;1281;22817;-82
2023/12/04 01:18:01;;;;;;;49.10;22.30;;;;;;;-6.41;91.93;100993.08;107624;1281;25588;-83
2023/12/04 01:21:54;;;;;;;70.10;23.30;;;;;;;-6.42;92.00;100991.11;107504;1281;28094;-82
2023/12/04 01:26:07;;;;;;;59.80;22.90;;;;;;;-6.49;91.30;100992.88;107582;1281;24405;-83
2023/12/04 01:29:40;;;;;;;67.30;24.40;;;;;;;-6.55;91.15;100997.11;107595;1281;22599;-82
2023/12/04 01:32:32;;;;;;;56.80;23.40;;;;;;;-6.59;91.11;101001.83;107528;1281;22676;-86
2023/12/04 01:35:44;;;;;;;56.60;20.30;;;;;;;-6.61;91.48;101006.60;107537;1281;23290;-83
2023/12/04 01:39:42;;;;;;;57.10;20.80;;;;;;;-6.59;91.55;101005.94;107491;1281;22839;-82
2023/12/04 01:42:54;;;;;;;58.00;21.40;;;;;;;-6.59;91.22;101004.79;107547;1280;22709;-83
2023/12/04 01:46:07;;;;;;;54.20;20.70;;;;;;;-6.67;90.45;101012.14;107652;1280;24230;-83
2023/12/04 01:49:03;;;;;;;52.30;20.90;;;;;;;-6.74;90.58;101011.78;107543;1281;22631;-81
2023/12/04 01:52:17;;;;;;;56.10;21.60;;;;;;;-6.79;90.66;101010.11;107600;1280;22651;-84
2023/12/04 01:55:50;;;;;;;51.30;21.40;;;;;;;-6.85;90.63;101002.23;107568;1281;25577;-82
2023/12/04 01:59:22;;;;;;;56.70;21.10;;;;;;;-6.89;90.40;101001.20;107589;1280;22789;-82
2023/12/04 02:02:15;;;;;;;59.40;22.70;;;;;;;-6.95;90.48;100998.30;107592;1281;25465;-82
2023/12/04 02:05:49;;;;;;;60.20;20.00;;;;;;;-6.98;90.47;100999.61;107636;1280;22849;-82
2023/12/04 02:08:44;;;;;;;55.80;20.10;;;;;;;-6.98;91.02;100994.89;107605;1266;24402;-83
2023/12/04 02:11:35;;;;;;;56.20;21.50;;;;;;;-6.92;91.77;100990.56;107771;1265;23899;-82
2023/12/04 02:14:56;;;;;;;59.60;22.40;;;;;;;-6.88;91.67;100986.94;107605;1280;23348;-82
2023/12/04 02:17:49;;;;;;;69.70;24.70;;;;;;;-6.90;90.86;100985.25;107740;1280;23797;-81
2023/12/04 02:20:40;;;;;;;64.00;25.20;;;;;;;-6.95;90.18;100983.34;107573;1273;26530;-81
2023/12/04 02:23:52;;;;;;;71.10;27.50;;;;;;;-7.03;89.54;100983.40;107679;1280;22651;-82
2023/12/04 02:27:33;;;;;;;90.10;30.50;;;;;;;-7.08;89.79;100982.47;107687;1280;25510;-82
2023/12/04 02:30:46;;;;;;;77.60;30.80;;;;;;;-7.09;89.81;100986.86;107641;1280;23319;-82
2023/12/04 02:34:19;;;;;;;81.60;31.00;;;;;;;-7.11;89.75;100985.26;107668;1280;23934;-82
2023/12/04 02:38:11;;;;;;;67.70;26.30;;;;;;;-7.21;89.07;100986.59;107565;1280;24155;-82
2023/12/04 02:41:03;;;;;;;70.40;26.90;;;;;;;-7.26;89.09;100982.88;107524;1274;22667;-82
2023/12/04 02:44:16;;;;;;;78.90;30.90;;;;;;;-7.34;88.79;100980.08;107533;1280;24371;-83
2023/12/04 02:47:28;;;;;;;73.00;29.60;;;;;;;-7.39;88.96;100978.36;107631;1280;22763;-84
2023/12/04 02:51:01;;;;;;;87.70;32.40;;;;;;;-7.43;88.89;100979.11;107592;1280;22853;-83
2023/12/04 02:54:13;;;;;;;73.10;30.20;;;;;;;-7.50;88.45;100980.81;107680;1280;24399;-83
2023/12/04 02:57:07;;;;;;;77.90;30.30;;;;;;;-7.58;88.31;100978.38;107540;1257;23627;-84
2023/12/04 03:00:23;;;;;;;89.70;34.70;;;;;;;-7.66;88.30;100977.21;107555;1281;23319;-83
2023/12/04 03:03:55;;;;;;;86.90;34.30;;;;;;;-7.73;88.34;100979.60;107507;1281;22659;-85
2023/12/04 03:07:26;;;;;;;109.70;43.00;;;;;;;-7.78;88.36;100981.39;107310;1281;24263;-84
2023/12/04 03:10:58;;;;;;;104.30;41.90;;;;;;;-7.86;88.01;100978.36;107487;1281;22648;-83
2023/12/04 03:14:31;;;;;;;93.00;35.90;;;;;;;-7.92;87.89;100980.29;107523;1281;22651;-83
2023/12/04 03:18:03;;;;;;;85.80;34.60;;;;;;;-8.02;87.62;100978.27;107399;1281;24331;-83
2023/12/04 03:21:14;;;;;;;84.30;35.40;;;;;;;-8.06;88.05;100980.45;107443;1281;22629;-83
2023/12/04 03:24:48;;;;;;;91.30;36.20;;;;;;;-8.09;87.88;100982.30;107641;1270;23562;-83
2023/12/04 03:28:01;;;;;;;86.40;35.10;;;;;;;-8.13;87.65;100985.24;107392;1281;25501;-84
2023/12/04 03:31:54;;;;;;;82.70;30.80;;;;;;;-8.21;87.48;100986.45;107507;1281;22714;-83
2023/12/04 03:35:06;;;;;;;77.90;27.50;;;;;;;-8.30;87.30;100996.86;107276;1281;24269;-83
2023/12/04 03:38:20;;;;;;;71.00;26.00;;;;;;;-8.40;87.20;100998.60;107629;1280;22558;-83
2023/12/04 03:42:13;;;;;;;66.60;24.00;;;;;;;-8.47;87.48;100998.77;107647;1274;24048;-84
2023/12/04 03:45:44;;;;;;;60.20;20.30;;;;;;;-8.52;87.55;101001.81;107341;1273;23785;-83
2023/12/04 03:49:16;;;;;;;61.00;22.80;;;;;;;-8.58;86.86;101002.98;107380;1257;22814;-84
2023/12/04 03:52:10;;;;;;;61.30;22.80;;;;;;;-8.66;86.57;101002.44;107629;1281;23940;-85
2023/12/04 03:55:42;;;;;;;59.10;21.10;;;;;;;-8.75;86.48;100998.10;107529;1281;22583;-84
2023/12/04 03:58:53;;;;;;;65.60;21.30;;;;;;;-8.84;86.19;100998.48;107488;1281;22866;-84
2023/12/04 04:01:47;;;;;;;65.60;21.50;;;;;;;-8.92;86.20;100998.41;107484;1267;24370;-84
2023/12/04 04:04:38;;;;;;;59.60;20.20;;;;;;;-8.97;86.29;100994.05;107406;1278;25624;-84
2023/12/04 04:07:53;;;;;;;63.30;21.40;;;;;;;-9.03;86.44;100994.52;107554;1281;24256;-83
2023/12/04 04:11:08;;;;;;;57.50;21.80;;;;;;;-9.07;86.13;100991.29;107362;1273;25331;-84
2023/12/04 04:14:20;;;;;;;50.80;20.00;;;;;;;-9.16;86.02;100990.73;107533;1281;22586;-84
2023/12/04 04:17:11;;;;;;;51.50;19.40;;;;;;;-9.20;86.63;100984.86;107543;1281;25535;-83
2023/12/04 04:20:26;;;;;;;56.90;18.80;;;;;;;-9.18;87.42;100984.30;107522;1281;25495;-83
2023/12/04 04:23:58;;;;;;;55.80;19.80;;;;;;;-9.18;87.23;100981.55;107813;1281;25283;-84
2023/12/04 04:26:53;;;;;;;55.80;20.00;;;;;;;-9.20;86.95;100974.17;107800;1281;22602;-83
2023/12/04 04:30:46;;;;;;;57.50;21.70;;;;;;;-9.19;87.44;100971.85;107574;1281;25542;-83
2023/12/04 04:34:19;;;;;;;73.60;25.30;;;;;;;-9.18;87.21;100970.15;107943;1281;27642;-85
2023/12/04 04:37:30;;;;;;;74.30;25.80;;;;;;;-9.18;87.30;100965.69;108117;1270;25287;-84
2023/12/04 04:40:43;;;;;;;70.10;26.50;;;;;;;-9.16;87.37;100964.29;108003;1258;22651;-85
